createdAt,value
2022-09-21T00:01:25.447Z,12.60
2022-09-21T00:04:00.578Z,12.52
2022-09-21T00:06:30.119Z,12.47
2022-09-21T00:08:57.355Z,12.50
2022-09-21T00:11:30.089Z,12.48
2022-09-21T00:14:00.818Z,12.37
2022-09-21T00:16:29.163Z,12.30
2022-09-21T00:18:56.419Z,12.25
2022-09-21T00:21:24.445Z,12.21
2022-09-21T00:23:51.651Z,12.34
2022-09-21T00:26:21.164Z,12.27
2022-09-21T00:28:54.605Z,12.20
2022-09-21T00:31:23.989Z,12.30
2022-09-21T00:33:52.007Z,12.25
2022-09-21T00:36:22.244Z,12.27
2022-09-21T00:38:51.528Z,12.14
2022-09-21T00:41:18.936Z,12.10
2022-09-21T00:44:07.819Z,12.08
2022-09-21T00:46:37.452Z,12.08
2022-09-21T00:49:04.695Z,12.06
2022-09-21T00:51:31.955Z,11.89
2022-09-21T00:54:05.275Z,11.89
2022-09-21T00:56:32.788Z,11.97
2022-09-21T00:59:00.102Z,11.97
2022-09-21T01:01:27.338Z,11.94
2022-09-21T01:03:57.296Z,11.89
2022-09-21T01:06:25.450Z,11.91
2022-09-21T01:08:55.612Z,11.90
2022-09-21T01:11:46.796Z,11.89
2022-09-21T01:14:19.725Z,11.87
2022-09-21T01:17:03.445Z,11.81
2022-09-21T01:19:47.041Z,11.70
2022-09-21T01:22:27.469Z,11.74
2022-09-21T01:25:05.627Z,11.65
2022-09-21T01:28:06.865Z,11.64
2022-09-21T01:30:36.239Z,11.71
2022-09-21T01:33:13.891Z,11.76
2022-09-21T01:35:47.860Z,11.73
2022-09-21T01:38:22.895Z,11.67
2022-09-21T01:40:59.346Z,11.56
2022-09-21T01:43:32.448Z,11.50
2022-09-21T01:46:02.192Z,11.48
2022-09-21T01:48:35.186Z,11.48
2022-09-21T01:51:07.377Z,11.41
2022-09-21T01:53:41.621Z,11.31
2022-09-21T01:56:30.351Z,11.23
2022-09-21T01:59:03.255Z,11.17
2022-09-21T02:01:35.624Z,11.17
2022-09-21T02:04:09.230Z,11.10
2022-09-21T02:06:41.357Z,11.21
2022-09-21T02:09:10.551Z,11.17
2022-09-21T02:11:38.904Z,11.10
2022-09-21T02:14:10.244Z,11.07
2022-09-21T02:16:56.385Z,11.08
2022-09-21T02:19:37.337Z,11.21
2022-09-21T02:22:29.377Z,11.29
2022-09-21T02:25:06.127Z,11.30
2022-09-21T02:27:50.592Z,11.28
2022-09-21T02:30:25.040Z,11.26
2022-09-21T02:33:07.235Z,11.16
2022-09-21T02:35:47.067Z,11.18
2022-09-21T02:38:22.788Z,11.24
2022-09-21T02:41:02.148Z,11.13
2022-09-21T02:44:04.104Z,11.24
2022-09-21T02:46:37.927Z,11.21
2022-09-21T02:49:10.995Z,11.20
2022-09-21T02:51:47.299Z,11.15
2022-09-21T02:54:17.863Z,11.09
2022-09-21T02:56:46.689Z,11.10
2022-09-21T02:59:15.531Z,11.19
2022-09-21T03:01:43.470Z,11.29
2022-09-21T03:04:11.158Z,11.38
2022-09-21T03:06:38.745Z,11.39
2022-09-21T03:09:05.953Z,11.41
2022-09-21T03:11:34.128Z,11.40
2022-09-21T03:14:02.366Z,11.37
2022-09-21T03:16:29.563Z,11.41
2022-09-21T03:18:56.812Z,11.45
2022-09-21T03:21:23.997Z,11.53
2022-09-21T03:23:51.226Z,11.51
2022-09-21T03:26:22.212Z,11.54
2022-09-21T03:28:50.632Z,11.59
2022-09-21T03:31:17.892Z,11.66
2022-09-21T03:33:45.151Z,11.70
2022-09-21T03:36:12.683Z,11.73
2022-09-21T03:38:39.903Z,11.85
2022-09-21T03:41:07.168Z,11.97
2022-09-21T03:43:34.490Z,12.09
2022-09-21T03:46:01.721Z,12.12
2022-09-21T03:48:29.036Z,12.15
2022-09-21T03:50:57.129Z,12.17
2022-09-21T03:53:24.296Z,12.19
2022-09-21T03:55:51.491Z,12.23
2022-09-21T03:58:18.656Z,12.31
2022-09-21T04:00:46.315Z,12.35
2022-09-21T04:03:13.578Z,12.35
2022-09-21T04:05:40.771Z,12.33
2022-09-21T04:08:09.296Z,12.29
2022-09-21T04:10:37.052Z,12.28
2022-09-21T04:13:04.816Z,12.27
2022-09-21T04:15:32.137Z,12.27
2022-09-21T04:17:59.453Z,12.25
2022-09-21T04:20:26.773Z,12.21
2022-09-21T04:22:53.988Z,12.21
2022-09-21T04:25:21.175Z,12.15
2022-09-21T04:27:48.360Z,12.08
2022-09-21T04:30:16.645Z,12.02
2022-09-21T04:32:44.319Z,12.01
2022-09-21T04:35:11.576Z,12.00
2022-09-21T04:37:38.798Z,12.05
2022-09-21T04:40:08.331Z,12.07
2022-09-21T04:42:36.183Z,12.12
2022-09-21T04:45:04.504Z,12.12
2022-09-21T04:47:31.739Z,12.09
2022-09-21T04:49:58.916Z,12.02
2022-09-21T04:52:26.243Z,11.93
2022-09-21T04:54:53.515Z,11.93
2022-09-21T04:57:20.805Z,11.97
2022-09-21T04:59:48.081Z,11.92
2022-09-21T05:02:15.351Z,13.62
2022-09-21T05:04:42.718Z,14.90
2022-09-21T05:07:10.586Z,14.52
2022-09-21T05:09:56.028Z,14.31
2022-09-21T05:12:23.259Z,14.78
2022-09-21T05:14:50.468Z,15.63
2022-09-21T05:17:17.751Z,16.03
2022-09-21T05:19:45.001Z,16.34
2022-09-21T05:22:12.158Z,16.64
2022-09-21T05:24:39.323Z,16.72
2022-09-21T05:27:06.549Z,16.69
2022-09-21T05:29:34.269Z,16.86
2022-09-21T05:32:06.280Z,16.83
2022-09-21T05:34:51.919Z,16.26
2022-09-21T05:37:32.187Z,17.08
2022-09-21T05:39:59.684Z,17.49
2022-09-21T05:42:27.211Z,15.80
2022-09-21T05:44:55.345Z,13.96
2022-09-21T05:47:28.489Z,13.20
2022-09-21T05:50:20.321Z,13.59
2022-09-21T05:52:53.338Z,13.20
2022-09-21T05:55:35.664Z,12.93
2022-09-21T05:58:16.400Z,12.76
2022-09-21T06:01:10.944Z,12.78
2022-09-21T06:03:40.876Z,12.95
2022-09-21T06:06:09.655Z,12.77
2022-09-21T06:08:36.832Z,13.13
2022-09-21T06:11:04.160Z,13.79
2022-09-21T06:13:31.453Z,13.79
2022-09-21T06:16:02.628Z,14.13
2022-09-21T06:18:29.871Z,14.28
2022-09-21T06:20:57.089Z,14.16
2022-09-21T06:23:24.321Z,14.23
2022-09-21T06:25:58.229Z,14.18
2022-09-21T06:28:25.903Z,14.24
2022-09-21T06:30:55.194Z,14.47
2022-09-21T06:33:23.658Z,14.26
2022-09-21T06:35:58.725Z,13.98
2022-09-21T06:38:28.040Z,14.03
2022-09-21T06:40:55.910Z,13.89
2022-09-21T06:43:23.155Z,13.98
2022-09-21T06:46:00.280Z,13.98
2022-09-21T06:48:29.461Z,14.07
2022-09-21T06:51:00.699Z,14.09
2022-09-21T06:53:29.693Z,14.04
2022-09-21T06:56:09.566Z,14.16
2022-09-21T06:58:38.233Z,14.26
2022-09-21T07:01:08.075Z,14.61
2022-09-21T07:03:35.500Z,14.91
2022-09-21T07:06:02.990Z,15.17
2022-09-21T07:11:17.335Z,15.56
2022-09-21T07:13:45.477Z,15.62
2022-09-21T07:16:13.426Z,15.69
2022-09-21T07:18:44.452Z,15.88
2022-09-21T07:21:12.121Z,16.13
2022-09-21T07:23:39.333Z,16.39
2022-09-21T07:26:12.588Z,16.45
2022-09-21T07:28:40.181Z,16.61
2022-09-21T07:31:14.089Z,16.58
2022-09-21T07:33:42.458Z,16.41
2022-09-21T07:36:10.721Z,16.51
2022-09-21T07:38:39.771Z,16.49
2022-09-21T07:41:08.356Z,16.62
2022-09-21T07:43:36.843Z,16.75
2022-09-21T07:46:04.316Z,16.81
2022-09-21T07:48:34.831Z,16.68
2022-09-21T07:51:06.410Z,16.72
2022-09-21T07:53:34.793Z,16.72
2022-09-21T07:56:04.381Z,16.63
2022-09-21T07:58:50.273Z,16.92
2022-09-21T08:01:17.970Z,16.86
2022-09-21T08:03:45.318Z,17.14
2022-09-21T08:06:12.503Z,17.08
2022-09-21T08:08:41.640Z,17.02
2022-09-21T08:11:09.155Z,17.16
2022-09-21T08:13:36.336Z,16.71
2022-09-21T08:16:03.872Z,16.73
2022-09-21T08:18:31.178Z,16.89
2022-09-21T08:21:00.383Z,17.21
2022-09-21T08:23:30.664Z,17.39
2022-09-21T08:26:00.494Z,17.14
2022-09-21T08:28:28.587Z,17.08
2022-09-21T08:30:59.830Z,17.62
2022-09-21T08:33:29.529Z,17.45
2022-09-21T08:35:59.535Z,17.59
2022-09-21T08:38:27.780Z,17.79
2022-09-21T08:40:55.246Z,17.69
2022-09-21T08:43:36.388Z,18.02
2022-09-21T08:46:07.500Z,17.82
2022-09-21T08:48:41.485Z,17.72
2022-09-21T08:51:17.091Z,17.83
2022-09-21T08:53:46.744Z,17.42
2022-09-21T08:56:15.600Z,17.36
2022-09-21T08:59:16.038Z,17.14
2022-09-21T09:10:52.123Z,16.95
2022-09-21T09:14:02.162Z,17.11
2022-09-21T09:17:03.256Z,17.50
2022-09-21T09:19:36.207Z,17.61
2022-09-21T09:22:07.702Z,17.63
2022-09-21T09:24:40.642Z,17.77
2022-09-21T09:27:16.851Z,17.95
2022-09-21T09:30:04.062Z,18.62
2022-09-21T09:32:52.416Z,18.82
2022-09-21T09:35:24.707Z,18.61
2022-09-21T09:37:55.517Z,18.97
2022-09-21T09:41:04.097Z,18.98
2022-09-21T09:43:59.892Z,18.64
2022-09-21T09:46:38.349Z,18.58
2022-09-21T09:49:19.913Z,18.92
2022-09-21T09:51:49.479Z,18.82
2022-09-21T09:54:18.972Z,19.13
2022-09-21T09:56:46.213Z,19.09
2022-09-21T09:59:26.255Z,19.45
2022-09-21T10:02:22.627Z,19.47
2022-09-21T10:05:06.694Z,19.33
2022-09-21T10:07:47.668Z,19.62
2022-09-21T10:10:33.210Z,19.04
2022-09-21T10:13:03.096Z,18.68
2022-09-21T10:15:30.336Z,18.43
2022-09-21T10:18:15.680Z,18.30
2022-09-21T10:20:58.152Z,18.36
2022-09-21T10:23:27.310Z,18.80
2022-09-21T10:26:08.386Z,19.51
2022-09-21T10:28:35.991Z,19.83
2022-09-21T10:31:18.080Z,20.03
2022-09-21T10:34:14.988Z,20.09
2022-09-21T10:36:54.659Z,20.44
2022-09-21T10:39:29.873Z,20.74
2022-09-21T10:41:58.787Z,20.48
2022-09-21T10:44:41.520Z,20.20
2022-09-21T10:47:32.553Z,20.39
2022-09-21T10:50:03.795Z,21.13
2022-09-21T10:52:41.828Z,21.26
2022-09-21T10:55:22.391Z,21.93
2022-09-21T10:57:52.604Z,21.80
2022-09-21T11:00:25.861Z,21.71
2022-09-21T11:02:54.959Z,21.85
2022-09-21T11:05:38.687Z,21.74
2022-09-21T11:08:14.605Z,21.57
2022-09-21T11:10:50.006Z,21.91
2022-09-21T11:13:33.189Z,21.73
2022-09-21T11:20:03.227Z,21.48
2022-09-21T11:22:54.272Z,21.80
2022-09-21T11:25:32.363Z,22.11
2022-09-21T11:28:13.315Z,21.88
2022-09-21T11:31:15.700Z,22.14
2022-09-21T11:33:43.139Z,22.38
2022-09-21T11:36:33.466Z,22.86
2022-09-21T11:39:23.723Z,22.94
2022-09-21T11:42:04.928Z,23.00
2022-09-21T11:44:38.246Z,23.63
2022-09-21T11:47:43.208Z,22.91
2022-09-21T11:50:38.477Z,22.08
2022-09-21T11:53:18.145Z,21.44
2022-09-21T11:56:23.898Z,20.63
2022-09-21T11:59:04.187Z,20.15
2022-09-21T12:02:03.417Z,19.88
2022-09-21T12:04:35.837Z,19.57
2022-09-21T12:07:27.631Z,19.81
2022-09-21T12:10:13.460Z,20.73
2022-09-21T12:12:57.610Z,21.07
2022-09-21T12:15:41.369Z,21.23
2022-09-21T12:18:21.442Z,20.89
2022-09-21T12:20:59.400Z,20.39
2022-09-21T12:23:50.804Z,21.10
2022-09-21T12:26:24.020Z,20.60
2022-09-21T12:29:00.798Z,21.21
2022-09-21T12:31:43.497Z,21.78
2022-09-21T12:34:21.543Z,22.35
2022-09-21T12:36:57.807Z,22.48
2022-09-21T12:39:50.425Z,22.71
2022-09-21T12:42:30.273Z,22.70
2022-09-21T12:45:19.815Z,22.48
2022-09-21T12:48:02.763Z,22.56
2022-09-21T12:50:39.615Z,22.73
2022-09-21T12:53:10.866Z,22.84
2022-09-21T12:55:45.496Z,22.63
2022-09-21T12:58:39.966Z,21.82
2022-09-21T13:01:33.272Z,22.15
2022-09-21T13:04:18.550Z,22.52
2022-09-21T13:06:57.789Z,22.17
2022-09-21T13:09:26.234Z,22.01
2022-09-21T13:11:59.118Z,22.23
2022-09-21T13:14:34.738Z,22.39
2022-09-21T13:17:05.699Z,22.74
2022-09-21T13:19:35.761Z,22.36
2022-09-21T13:22:21.248Z,22.51
2022-09-21T13:25:01.379Z,22.52
2022-09-21T13:28:03.972Z,22.20
2022-09-21T13:30:37.776Z,22.35
2022-09-21T13:33:25.362Z,22.76
2022-09-21T13:36:04.440Z,22.58
2022-09-21T13:38:41.183Z,22.55
2022-09-21T13:41:17.650Z,22.56
2022-09-21T13:44:01.096Z,22.40
2022-09-21T13:46:37.475Z,22.59
2022-09-21T13:49:31.260Z,22.56
2022-09-21T13:52:13.743Z,22.55
2022-09-21T13:54:55.469Z,22.39
2022-09-21T13:57:36.939Z,22.29
2022-09-21T14:00:13.132Z,22.32
2022-09-21T14:03:04.368Z,22.27
2022-09-21T14:05:39.797Z,22.68
2022-09-21T14:08:16.091Z,22.54
2022-09-21T14:10:58.127Z,22.72
2022-09-21T14:13:25.276Z,22.55
2022-09-21T14:15:52.578Z,22.23
2022-09-21T14:18:34.856Z,22.36
2022-09-21T14:21:10.664Z,22.18
2022-09-21T14:23:39.206Z,22.00
2022-09-21T14:26:34.862Z,22.42
2022-09-21T14:29:30.915Z,22.67
2022-09-21T14:32:02.965Z,22.82
2022-09-21T14:34:37.007Z,22.93
2022-09-21T14:37:32.618Z,22.86
2022-09-21T14:40:15.442Z,23.01
2022-09-21T14:42:43.747Z,23.51
2022-09-21T14:45:19.466Z,23.79
2022-09-21T14:48:04.542Z,24.10
2022-09-21T14:50:57.399Z,24.76
2022-09-21T14:53:28.206Z,25.35
2022-09-21T14:56:24.667Z,25.48
2022-09-21T14:59:25.874Z,25.47
2022-09-21T15:02:03.429Z,25.68
2022-09-21T15:05:09.075Z,25.69
2022-09-21T15:08:52.743Z,26.67
2022-09-21T15:11:37.908Z,27.14
2022-09-21T15:14:27.216Z,26.83
2022-09-21T15:16:54.505Z,27.82
2022-09-21T15:19:30.037Z,27.85
2022-09-21T15:22:10.512Z,26.90
2022-09-21T15:24:37.728Z,26.33
2022-09-21T15:27:16.117Z,26.40
2022-09-21T15:29:53.124Z,26.18
2022-09-21T15:32:40.505Z,26.13
2022-09-21T15:35:17.130Z,25.62
2022-09-21T15:37:45.842Z,23.64
2022-09-21T15:40:26.834Z,22.86
2022-09-21T15:43:00.965Z,21.77
2022-09-21T15:45:51.712Z,21.10
2022-09-21T15:48:20.715Z,20.64
2022-09-21T15:50:53.631Z,20.29
2022-09-21T15:53:33.693Z,19.94
2022-09-21T15:56:01.577Z,19.55
2022-09-21T15:58:38.526Z,19.46
2022-09-21T16:01:16.075Z,19.30
2022-09-21T16:03:43.632Z,19.11
2022-09-21T16:06:24.202Z,19.00
2022-09-21T16:08:51.646Z,18.88
2022-09-21T16:11:23.243Z,18.77
2022-09-21T16:14:28.144Z,18.81
2022-09-21T16:17:13.686Z,18.68
2022-09-21T16:19:53.895Z,18.52
2022-09-21T16:22:25.756Z,18.43
2022-09-21T16:24:55.606Z,18.37
2022-09-21T16:27:28.751Z,18.35
2022-09-21T16:29:57.362Z,18.26
2022-09-21T16:32:31.927Z,18.07
2022-09-21T16:35:17.836Z,18.03
2022-09-21T16:37:45.102Z,17.89
2022-09-21T16:40:14.127Z,17.81
2022-09-21T16:42:46.051Z,17.73
2022-09-21T16:45:24.100Z,17.66
2022-09-21T16:47:54.077Z,17.57
2022-09-21T16:50:21.334Z,17.49
2022-09-21T16:52:51.508Z,17.42
2022-09-21T16:55:25.484Z,17.25
2022-09-21T16:57:55.915Z,17.19
2022-09-21T17:00:23.580Z,17.13
2022-09-21T17:02:50.953Z,16.99
2022-09-21T17:05:19.425Z,16.87
2022-09-21T17:07:53.539Z,16.74
2022-09-21T17:10:27.226Z,16.64
2022-09-21T17:12:55.547Z,16.57
2022-09-21T17:15:23.781Z,16.47
2022-09-21T17:17:51.392Z,16.37
2022-09-21T17:20:33.104Z,16.33
2022-09-21T17:23:01.984Z,16.17
2022-09-21T17:25:30.353Z,16.09
2022-09-21T17:28:00.650Z,15.98
2022-09-21T17:30:28.487Z,15.97
2022-09-21T17:32:56.034Z,15.95
2022-09-21T17:35:33.651Z,15.83
2022-09-21T17:38:00.889Z,15.72
2022-09-21T17:40:29.843Z,15.61
2022-09-21T17:43:11.950Z,15.56
2022-09-21T17:45:46.699Z,15.49
2022-09-21T17:48:19.896Z,15.47
2022-09-21T17:50:48.591Z,15.32
2022-09-21T17:53:34.620Z,15.20
2022-09-21T17:56:25.571Z,15.08
2022-09-21T17:59:02.560Z,14.94
2022-09-21T18:01:36.238Z,14.87
2022-09-21T18:04:04.658Z,14.85
2022-09-21T18:06:32.590Z,14.79
2022-09-21T18:09:01.572Z,14.76
2022-09-21T18:11:44.124Z,14.75
2022-09-21T18:14:25.048Z,14.72
2022-09-21T18:17:21.162Z,14.65
2022-09-21T18:20:15.247Z,14.64
2022-09-21T18:22:55.137Z,14.57
2022-09-21T18:25:49.636Z,14.52
2022-09-21T18:28:34.807Z,14.50
2022-09-21T18:31:17.424Z,14.42
2022-09-21T18:33:59.983Z,14.34
2022-09-21T18:36:40.997Z,14.29
2022-09-21T18:39:34.643Z,14.08
2022-09-21T18:42:41.687Z,13.99
2022-09-21T18:45:41.632Z,13.83
2022-09-21T18:48:28.340Z,13.76
2022-09-21T18:51:10.600Z,13.73
2022-09-21T18:53:49.639Z,13.72
2022-09-21T18:56:17.107Z,13.69
2022-09-21T18:58:44.612Z,13.64
2022-09-21T19:01:12.976Z,13.66
2022-09-21T19:03:42.911Z,13.65
2022-09-21T19:06:27.389Z,13.64
2022-09-21T19:09:30.786Z,13.61
2022-09-21T19:12:06.671Z,13.51
2022-09-21T19:15:12.341Z,13.39
2022-09-21T19:18:12.391Z,13.39
2022-09-21T19:20:40.212Z,13.31
2022-09-21T19:23:28.943Z,13.23
2022-09-21T19:26:08.027Z,13.18
2022-09-21T19:28:50.313Z,13.14
2022-09-21T19:31:21.614Z,13.00
2022-09-21T19:33:50.758Z,12.90
2022-09-21T19:36:19.763Z,12.86
2022-09-21T19:38:47.306Z,12.86
2022-09-21T19:41:36.486Z,12.85
2022-09-21T19:44:36.030Z,12.76
2022-09-21T19:47:14.228Z,12.79
2022-09-21T19:49:54.608Z,12.78
2022-09-21T19:52:35.291Z,12.74
2022-09-21T19:55:22.779Z,12.74
2022-09-21T19:58:08.867Z,12.75
2022-09-21T20:00:37.435Z,12.73
2022-09-21T20:03:17.614Z,12.68
2022-09-21T20:06:13.191Z,12.62
2022-09-21T20:08:55.824Z,12.55
2022-09-21T20:11:34.916Z,12.52
2022-09-21T20:14:20.681Z,12.46
2022-09-21T20:16:48.022Z,12.44
2022-09-21T20:19:23.068Z,12.41
2022-09-21T20:21:58.779Z,12.35
2022-09-21T20:24:47.745Z,12.35
2022-09-21T20:27:30.267Z,12.31
2022-09-21T20:29:57.801Z,12.29
2022-09-21T20:32:25.049Z,12.34
2022-09-21T20:34:52.299Z,12.28
2022-09-21T20:37:20.258Z,12.23
2022-09-21T20:39:47.523Z,12.18
2022-09-21T20:42:23.823Z,12.11
2022-09-21T20:44:51.563Z,12.10
2022-09-21T20:47:20.231Z,12.09
2022-09-21T20:49:48.147Z,12.04
2022-09-21T20:52:17.310Z,12.03
2022-09-21T20:54:48.995Z,11.96
2022-09-21T20:57:18.322Z,11.89
2022-09-21T20:59:45.924Z,11.84
2022-09-21T21:02:14.181Z,11.86
2022-09-21T21:04:41.422Z,11.76
2022-09-21T21:07:08.729Z,11.70
2022-09-21T21:09:35.959Z,11.60
2022-09-21T21:12:03.240Z,11.59
2022-09-21T21:14:30.442Z,11.55
2022-09-21T21:16:57.673Z,11.54
2022-09-21T21:19:24.903Z,11.56
2022-09-21T21:21:52.098Z,11.55
2022-09-21T21:24:37.418Z,11.49
2022-09-21T21:27:04.833Z,11.46
2022-09-21T21:29:32.887Z,11.41
2022-09-21T21:32:00.540Z,11.37
2022-09-21T21:34:27.856Z,11.35
2022-09-21T21:36:55.981Z,11.33
2022-09-21T21:39:23.319Z,11.16
2022-09-21T21:41:50.562Z,11.04
2022-09-21T21:44:17.770Z,10.95
2022-09-21T21:46:45.032Z,10.95
2022-09-21T21:49:13.483Z,10.91
2022-09-21T21:51:40.676Z,10.83
2022-09-21T21:54:08.472Z,10.78
2022-09-21T21:56:35.716Z,10.65
2022-09-21T21:59:03.359Z,10.59
2022-09-21T22:01:31.129Z,10.59
2022-09-21T22:04:00.725Z,10.48
2022-09-21T22:06:29.615Z,10.42
2022-09-21T22:08:57.541Z,10.41
2022-09-21T22:11:26.274Z,10.38
2022-09-21T22:13:54.627Z,10.34
2022-09-21T22:16:23.419Z,10.25
2022-09-21T22:18:52.308Z,10.24
2022-09-21T22:21:24.064Z,10.15
2022-09-21T22:23:56.161Z,10.14
2022-09-21T22:26:24.552Z,10.05
2022-09-21T22:28:55.539Z,10.00
2022-09-21T22:31:28.565Z,9.95
2022-09-21T22:33:57.519Z,9.95
2022-09-21T22:36:27.327Z,9.94
2022-09-21T22:38:55.436Z,9.94
2022-09-21T22:41:26.405Z,9.93
2022-09-21T22:43:55.052Z,9.88
2022-09-21T22:46:24.103Z,9.77
2022-09-21T22:48:51.827Z,9.71
2022-09-21T22:51:20.191Z,9.71
2022-09-21T22:53:48.888Z,9.68
2022-09-21T22:56:22.284Z,9.60
2022-09-21T22:58:55.304Z,9.57
2022-09-21T23:01:28.287Z,9.60
2022-09-21T23:04:00.344Z,9.56
2022-09-21T23:06:31.790Z,9.55
2022-09-21T23:09:00.268Z,9.53
2022-09-21T23:11:32.903Z,9.49
2022-09-21T23:14:01.162Z,9.47
2022-09-21T23:16:29.952Z,9.43
2022-09-21T23:18:57.992Z,9.41
2022-09-21T23:21:28.066Z,9.40
2022-09-21T23:23:59.969Z,9.36
2022-09-21T23:26:30.552Z,9.33
2022-09-21T23:29:00.549Z,9.34
2022-09-21T23:31:29.380Z,9.39
2022-09-21T23:33:58.833Z,9.45
2022-09-21T23:36:28.442Z,9.41
2022-09-21T23:38:55.941Z,9.43
2022-09-21T23:41:28.706Z,9.42
2022-09-21T23:43:56.792Z,9.42
2022-09-21T23:46:26.967Z,9.41
2022-09-21T23:48:54.443Z,9.35
2022-09-21T23:51:22.346Z,9.32
2022-09-21T23:53:50.337Z,9.35
2022-09-21T23:56:21.425Z,9.32
2022-09-21T23:58:49.571Z,9.29
